Latest Coastal Weather Observations for Strahan

IDT60701

Issued at 7:15 am EST Tuesday 2 September 2014 (issued every 10 minutes, with the page automatically refreshed every 10 minutes)

About coastal observations | Map of coastal stations | Coastal observations for TAS | Marine services | Other Formats
Station Details ID: 097072 Name: STRAHAN AERODROME Lat: -42.16 Lon: 145.29 Height: 21.0 m
Data from the previous 72 hours. | See also: Recent months at Strahan
Date/Time
EST
Temp

°C
Wind Pressure Rain
since 9am
mm
Weather Cloud Vis
km
Sea
Height
m
Swell
Dir
 
Speed
knots
Gust
knots
hPa Trend Height
m
Period
s
Dir
02/07:00am 0.7 ENE 4 5 1017.9 - 6.4 - Partly cloudy 10 - - - -
02/06:30am -0.2 ENE 1 3 1017.6 - 6.4 - Partly cloudy 10 - - - -
02/06:00am 1.3 ENE 3 5 1017.2 - 6.4 - - 10 - - - -
02/05:30am 1.0 CALM 0 0 1016.7 - 6.4 - - 10 - - - -
02/05:00am 1.6 E 4 4 1016.2 - 6.4 - - 10 - - - -
02/04:30am 1.7 E 3 4 1015.8 - 6.4 - - 10 - - - -
02/04:00am 1.9 ESE 7 9 1015.3 - 6.4 - - 10 - - - -
02/03:30am 2.6 E 5 7 1015.1 - 6.4 - - 10 - - - -
02/03:00am 3.1 SE 7 8 1014.8 - 6.4 Recent precip. Mostly clear 10 - - - -
02/02:30am 3.5 SSE 8 10 1014.4 - 6.2 - - 10 - - - -
02/02:00am 3.3 SE 7 8 1014.1 - 6.2 - - 10 - - - -
02/01:30am 3.7 SSE 8 8 1013.9 - 6.2 - - 10 - - - -
02/01:00am 3.5 SE 8 10 1013.6 - 6.2 - - 10 - - - -
02/12:30am 4.3 SE 7 10 1013.3 - 6.2 - Partly cloudy 10 - - - -
02/12:00am 5.6 SE 10 13 1013.1 - 6.2 - Cloudy 10 - - - -
 
Date/Time
EST
Temp

°C
Wind Pressure Rain
since 9am
mm
Weather Cloud Vis
km
Sea
Height
m
Swell
Dir
 
Speed
knots
Gust
knots
hPa Trend Height
m
Period
s
Dir
01/11:30pm 5.5 SE 11 16 1012.8 - 6.2 - Partly cloudy 10 - - - -
01/11:00pm 5.7 SSE 9 11 1012.4 - 6.2 - Partly cloudy 10 - - - -
01/10:30pm 5.4 S 8 10 1012.0 - 6.2 - Partly cloudy 10 - - - -
01/10:00pm 5.2 SSW 4 5 1011.8 - 6.2 - Partly cloudy 10 - - - -
01/09:30pm 6.0 S 4 5 1011.4 - 6.2 - Cloudy 10 - - - -
01/09:00pm 6.2 SE 4 5 1011.1 - 6.2 - Cloudy 10 - - - -
01/08:30pm 6.1 S 8 10 1010.9 - 6.2 - Partly cloudy 10 - - - -
01/08:00pm 6.2 SSW 5 7 1010.2 - 6.2 - Partly cloudy 10 - - - -
01/07:30pm 6.6 SSW 10 13 1009.8 - 6.2 - Partly cloudy 10 - - - -
01/07:00pm 6.6 SSW 3 4 1009.3 - 6.0 - Partly cloudy 10 - - - -
01/06:30pm 6.9 WSW 3 4 1008.7 - 5.8 - Partly cloudy 10 - - - -
01/06:00pm 7.4 SSE 5 7 1008.2 - 5.8 - Partly cloudy 10 - - - -
01/05:30pm 7.3 SSW 7 8 1007.8 - 5.8 - Partly cloudy 10 - - - -
01/05:00pm 7.5 SSW 5 7 1007.4 - 5.8 - Partly cloudy 10 - - - -
01/04:32pm 7.5 S 7 12 1006.8 - 5.8 - Partly cloudy 10 - - - -
01/04:30pm 7.5 S 7 13 1006.8 - 5.8 - Partly cloudy 10 - - - -
01/04:13pm 7.8 SSE 9 18 1006.7 - 5.2 - Partly cloudy 5 - - - -
01/04:00pm 8.8 SSE 7 8 1006.4 - 4.0 - Partly cloudy 10 - - - -
01/03:32pm 8.6 S 8 12 1006.0 - 4.0 - Partly cloudy 10 - - - -
01/03:30pm 8.6 S 8 12 1005.9 - 4.0 - Partly cloudy 10 - - - -
01/03:16pm 8.1 S 13 20 1005.9 - 4.0 - Partly cloudy 5 - - - -
01/03:00pm 8.7 S 11 15 1005.7 - 3.8 - Mostly cloudy 10 - - - -
01/02:30pm 8.9 S 11 16 1005.2 - 3.8 - Partly cloudy 10 - - - -
01/02:00pm 9.2 S 8 11 1005.0 - 3.8 - Partly cloudy 10 - - - -
01/01:30pm 9.1 S 9 13 1005.0 - 3.8 - Partly cloudy 10 - - - -
01/01:00pm 8.4 SSW 14 18 1004.8 - 3.8 - Partly cloudy 10 - - - -
01/12:30pm 9.0 S 9 13 1004.7 - 3.6 - Partly cloudy 10 - - - -
01/12:00pm 8.8 SSW 11 16 1004.5 - 3.6 Recent precip. Cloudy 10 - - - -
01/11:59am 8.8 S 11 15 1004.5 - 3.6 - Partly cloudy 10 - - - -
01/11:42am 8.7 SSW 11 18 1004.4 - 3.6 - Partly cloudy 5 - - - -
01/11:30am 9.1 SSW 10 13 1004.2 - 3.0 - Partly cloudy 10 - - - -
01/11:08am 9.4 SW 9 13 1004.2 - 3.0 - Partly cloudy 9 - - - -
01/11:00am 9.3 SW 9 13 1004.1 - 3.0 - Partly cloudy 6 - - - -
01/10:43am 9.3 WSW 6 8 1003.9 - 2.6 - Partly cloudy 4 - - - -
01/10:34am 9.2 SW 5 7 1003.7 - 2.6 - Partly cloudy 5 - - - -
01/10:30am 9.3 SW 4 6 1003.7 - 2.6 - Partly cloudy 6 - - - -
01/10:28am 9.4 SW 3 6 1003.7 - 2.6 - Partly cloudy 7 - - - -
01/10:21am 9.5 SW 3 4 1003.7 - 2.2 - Partly cloudy 8 - - - -
01/10:10am 9.5 W 3 4 1003.7 - 2.2 - Partly cloudy 5 - - - -
01/10:00am 9.3 WNW 3 4 1003.6 - 2.0 - Partly cloudy 6 - - - -
01/09:36am 9.0 NW 3 4 1003.4 - 1.8 - Partly cloudy 8 - - - -
01/09:30am 8.9 NW 3 4 1003.3 - 1.6 - Partly cloudy 6 - - - -
01/09:00am 8.4 W 10 15 1003.0 - 15.2 Rain Mostly cloudy 4 - - - -
01/08:55am 8.2 WNW 11 17 1003.1 - 14.6 - Partly cloudy 3 - - - -
01/08:40am 8.6 W 15 19 1003.0 - 12.0 - Partly cloudy 2 - - - -
01/08:30am 9.8 NW 11 15 1002.9 - 8.8 - Partly cloudy 3 - - - -
01/08:00am 9.6 NNW 7 10 1002.8 - 6.2 - Partly cloudy 4 - - - -
01/07:55am 9.6 NNW 6 9 1002.7 - 5.8 - Partly cloudy 5 - - - -
01/07:30am 9.6 N 6 9 1002.5 - 4.8 - Partly cloudy 9 - - - -
01/07:00am 9.6 NNE 6 9 1002.7 - 4.0 - Partly cloudy 8 - - - -
01/06:30am 9.8 N 7 14 1003.2 - 3.6 - Partly cloudy 6 - - - -
01/06:00am 9.9 N 12 19 1003.5 - 2.8 Recent precip. Cloudy 10 - - - -
01/05:30am 9.7 N 7 10 1003.9 - 2.6 - Cloudy 10 - - - -
01/05:00am 9.8 N 11 16 1004.4 - 2.2 - Partly cloudy 7 - - - -
01/04:30am 10.1 N 10 16 1004.6 - 1.2 - Partly cloudy 10 - - - -
01/04:00am 10.3 NNW 12 17 1004.9 - 1.0 - Partly cloudy 7 - - - -
01/03:30am 10.7 NNW 15 20 1005.0 - 0.6 - Partly cloudy 7 - - - -
01/03:00am 11.3 N 16 22 1005.4 - 0.2 Rain Cloudy 10 - - - -
01/02:30am 12.4 N 16 24 1005.7 - 0.0 - Partly cloudy 10 - - - -
01/02:00am 13.4 N 16 24 1005.5 - 0.0 - Partly cloudy 10 - - - -
01/01:44am 13.4 N 15 25 1005.6 - 0.0 - Partly cloudy 10 - - - -
01/01:30am 13.4 N 16 21 1005.5 - 0.0 - Partly cloudy 10 - - - -
01/01:00am 13.1 N 14 25 1005.0 - 0.0 - Partly cloudy 10 - - - -
01/12:30am 13.1 N 15 23 1005.5 - 0.0 - Partly cloudy 10 - - - -
01/12:00am 13.3 N 13 21 1005.7 - 0.0 - Cloudy 10 - - - -
 
Date/Time
EST
Temp

°C
Wind Pressure Rain
since 9am
mm
Weather Cloud Vis
km
Sea
Height
m
Swell
Dir
 
Speed
knots
Gust
knots
hPa Trend Height
m
Period
s
Dir
31/11:30pm 12.9 NNE 15 25 1005.8 - 0.0 - Partly cloudy 10 - - - -
31/11:05pm 12.8 NNE 15 25 1006.3 - 0.0 - Partly cloudy 10 - - - -
31/11:00pm 12.7 NNE 15 24 1006.2 - 0.0 - Partly cloudy 10 - - - -
31/10:30pm 12.6 N 11 19 1007.1 - 0.0 - Partly cloudy 10 - - - -
31/10:00pm 13.2 N 12 21 1007.7 - 0.0 - Cloudy 10 - - - -
31/09:30pm 13.1 NNE 14 25 1007.5 - 0.0 - Partly cloudy 10 - - - -
31/09:00pm 12.9 N 11 17 1008.1 - 0.0 - Cloudy 10 - - - -
31/08:30pm 12.6 N 11 16 1008.4 - 0.0 - Partly cloudy 10 - - - -
31/08:00pm 12.8 N 11 18 1008.6 - 0.0 - Partly cloudy 10 - - - -
31/07:30pm 12.9 N 11 19 1008.7 - 0.0 - Partly cloudy 10 - - - -
31/07:00pm 13.5 N 14 21 1008.6 - 0.0 - Partly cloudy 10 - - - -
31/06:30pm 13.6 N 11 21 1008.6 - 0.0 - - 10 - - - -
31/06:00pm 13.9 N 11 17 1008.7 - 0.0 - Cloudy 10 - - - -
31/05:30pm 14.2 N 9 13 1008.8 - 0.0 - - 10 - - - -
31/05:00pm 15.0 N 11 17 1009.0 - 0.0 - - 10 - - - -
31/04:30pm 15.4 N 13 19 1009.0 - 0.0 - - 10 - - - -
31/04:00pm 15.7 N 13 16 1009.3 - 0.0 - - 10 - - - -
31/03:30pm 15.5 N 12 16 1009.7 - 0.0 - - 10 - - - -
31/03:00pm 15.4 N 11 17 1010.1 - 0.0 - Mostly cloudy 10 - - - -
31/02:30pm 15.2 N 9 16 1010.5 - 0.0 - - 10 - - - -
31/02:00pm 15.5 N 13 22 1010.9 - 0.0 - - 10 - - - -
31/01:30pm 15.6 N 12 20 1011.5 - 0.0 - - 10 - - - -
31/01:00pm 16.6 N 12 19 1011.9 - 0.0 - - 10 - - - -
31/12:30pm 16.2 N 14 22 1012.5 - 0.0 - - 10 - - - -
31/12:00pm 15.6 N 10 15 1013.0 - 0.0 - Mostly cloudy 10 - - - -
31/11:30am 14.8 NNE 11 17 1013.3 - 0.0 - - 10 - - - -
31/11:00am 14.9 N 11 17 1013.6 - 0.0 - - 10 - - - -
31/10:30am 14.1 NNE 11 20 1013.9 - 0.0 - - 10 - - - -
31/10:00am 13.7 NNE 14 22 1013.8 - 0.0 - - 10 - - - -
31/09:30am 13.5 NNE 13 19 1014.1 - 0.0 - - 10 - - - -
31/09:00am 12.5 NNE 12 18 1014.5 - 0.0 - Mostly clear 10 - - - -
31/08:30am 12.1 NNE 12 17 1014.9 - 0.0 - - 10 - - - -
31/08:00am 10.6 NNE 13 21 1015.1 - 0.0 - - 10 - - - -
31/07:30am 9.9 NNE 12 18 1015.2 - 0.0 - - 10 - - - -
31/07:00am 9.4 NNE 11 15 1015.4 - 0.0 - - 10 - - - -
31/06:30am 9.5 NNE 11 17 1015.6 - 0.0 - - 10 - - - -
31/06:00am 9.8 NNE 12 19 1015.5 - 0.0 - Mostly clear 10 - - - -
31/05:30am 9.8 NNE 10 16 1015.7 - 0.0 - - 10 - - - -
31/05:00am 9.6 NNE 10 15 1015.9 - 0.0 - - 10 - - - -
31/04:30am 9.3 NNE 9 15 1015.9 - 0.0 - - 10 - - - -
31/04:00am 9.6 NNE 11 17 1016.2 - 0.0 - - 10 - - - -
31/03:30am 9.8 NNE 13 22 1016.4 - 0.0 - - 10 - - - -
31/03:08am 10.0 NNE 15 25 1016.5 - 0.0 - - 10 - - - -
31/03:00am 9.9 NNE 13 21 1016.6 - 0.0 - - 10 - - - -
31/02:30am 9.6 NNE 12 20 1017.3 - 0.0 - - 10 - - - -
31/02:00am 9.4 NNE 13 22 1017.7 - 0.0 - - 10 - - - -
31/01:30am 8.9 NNE 13 20 1018.0 - 0.0 - - 10 - - - -
31/01:00am 9.2 NNE 15 23 1018.3 - 0.0 - - 10 - - - -
31/12:30am 8.9 NNE 10 19 1018.7 - 0.0 - - 10 - - - -
31/12:00am 9.1 NNE 11 16 1018.8 - 0.0 - - 10 - - - -
 
Date/Time
EST
Temp

°C
Wind Pressure Rain
since 9am
mm
Weather Cloud Vis
km
Sea
Height
m
Swell
Dir
 
Speed
knots
Gust
knots
hPa Trend Height
m
Period
s
Dir
30/11:30pm 9.7 NNE 13 21 1018.8 - 0.0 - - 10 - - - -
30/11:00pm 9.8 NNE 13 20 1019.0 - 0.0 - - 10 - - - -
30/10:30pm 10.0 NNE 14 23 1019.1 - 0.0 - - 10 - - - -
30/10:00pm 9.8 NNE 14 24 1019.5 - 0.0 - - 10 - - - -
30/09:55pm 10.0 NNE 15 25 1019.6 - 0.0 - - 10 - - - -
30/09:30pm 9.7 NNE 12 19 1020.1 - 0.0 - - 10 - - - -
30/09:00pm 8.4 NNE 7 13 1020.6 - 0.0 - - 10 - - - -
30/08:30pm 8.4 NNE 6 8 1020.9 - 0.0 - - 10 - - - -
30/08:00pm 9.1 NNE 9 11 1020.8 - 0.0 - - 10 - - - -
30/07:30pm 9.8 NNE 8 13 1021.0 - 0.0 - - 10 - - - -
30/07:00pm 10.2 NNE 7 11 1021.0 - 0.0 - - 10 - - - -
30/06:30pm 10.4 N 6 8 1021.3 - 0.0 - - 10 - - - -
30/06:00pm 11.8 N 6 9 1021.0 - 0.0 - - 10 - - - -
30/05:30pm 13.0 N 6 8 1021.1 - 0.0 - - 10 - - - -
30/05:00pm 14.6 N 10 15 1021.2 - 0.0 - - 10 - - - -
30/04:30pm 15.7 N 9 13 1021.4 - 0.0 - - 10 - - - -
30/04:00pm 16.3 N 10 15 1021.5 - 0.0 - - 10 - - - -
30/03:30pm 16.7 N 12 15 1021.6 - 0.0 - - 10 - - - -
30/03:00pm 17.0 N 9 17 1022.1 - 0.0 - - 10 - - - -
30/02:30pm 16.8 N 7 15 1022.5 - 0.0 - Partly cloudy 10 - - - -
30/02:00pm 16.9 NNE 8 13 1023.2 - 0.0 - - 10 - - - -
30/01:30pm 16.8 N 11 19 1023.5 - 0.0 - - 10 - - - -
30/01:00pm 16.8 N 12 17 1023.9 - 0.0 - - 10 - - - -
30/12:30pm 16.7 N 11 15 1024.3 - 0.0 - - 10 - - - -
30/12:00pm 16.4 N 8 11 1024.9 - 0.0 - - 10 - - - -
30/11:30am 15.1 N 10 16 1025.1 - 0.0 - - 10 - - - -
30/11:00am 13.2 NE 10 16 1025.4 - 0.0 - - 10 - - - -
30/10:30am 11.9 SSE 5 7 1026.0 - 0.0 - - 10 - - - -
30/10:00am 12.6 E 5 7 1026.4 - 0.0 - - 10 - - - -
30/09:30am 10.6 ENE 4 6 1026.8 - 0.0 - - 10 - - - -
30/09:00am 8.6 E 3 5 1027.2 - 0.2 - - 10 - - - -
30/08:30am 7.0 CALM 0 0 1027.5 - 0.2 - - 10 - - - -
30/08:00am 5.1 NE 4 5 1027.8 - 0.2 - - 10 - - - -
30/07:30am 3.7 NE 1 5 1027.8 - 0.2 - - 10 - - - -

Other Formats:

Comma delimited format used in spreadsheet applications
http://www.bom.gov.au/fwo/IDT60701/IDT60701.94956.axf

JavaScript Object Notation format (JSON) in row-major order
http://www.bom.gov.au/fwo/IDT60701/IDT60701.94956.json